Terminal Aerodrome Forecast
Issued by NWS Twin Cities, MN

Home | Current Version | Previous Version | Graphics & Text | Print | Product List | Glossary On
Versions: 1 2 3 4 5 6 7 8 9 10 11 12 13 14 15 16 17
108
FTUS43 KMPX 221124
TAFEAU
TAF
KEAU 221124Z 2212/2312 VRB02KT P6SM SKC
     FM221700 19007KT P6SM BKN200
     FM222200 20009KT P6SM BKN050 OVC100
     FM230100 19006KT P6SM VCSH OVC050
     FM230500 19005KT P6SM BKN040 OVC100
     FM231000 VRB03KT P6SM SCT150=

USA.gov is the U.S. government's official web portal to all federal, state and local government web resources and services.